Aviation Digital Data Service (ADDS)

Output produced by METARs form (1210 UTC 15 November 2018)
found at http://www.aviationweather.gov/metar/data/
 
RPLC 151100Z 11002KT 9999 FEW020 SCT300 27/20 Q1013 NOSIG RMK A2991
TAF RPLC 151100Z 1512/1618 22008KT 9999 FEW020 BKN300 TX33/1606Z TN24/1522Z 
     TEMPO 1512/1518 26007KT FEW020 SCT100 BKN300
       
RPVD 150900Z 07008KT 9999 VCSH SCT014CB SCT080 29/26 Q1008 RMK A2977 VCSH SW, NW CB N W
TAF RPVD 151100Z 1512/1612 04008KT 9999 FEW015 SCT080 BKN220 
     TEMPO 1512/1518 07004KT 9000 -SHRA FEW014CB SCT015 BKN080
       
RPMD 151200Z 02004KT 330V060 9999 FEW016 SCT090 BKN290 26/24 Q1012 RMK A2988
TAF RPMD 151100Z 1512/1612 04007KT 9999 FEW016 SCT090 BKN290 
     TEMPO 1512/1518 36004KT 8000 -TSRA FEW015CB SCT016 BKN090
       
RPLI 151200Z 20002KT 9999 FEW018 28/25 Q1011 NOSIG RMK A2985
TAF RPLI 151100Z 1512/1612 12006KT 9999 FEW016 
     TEMPO 1512/1518 01004KT FEW017CB
       
RPVM 151200Z 33005KT 280V010 9000 FEW018CB OVC090 25/23 Q1013 RMK A2991 CB S, SW W
TAF RPVM 151100Z 1512/1618 04010KT 9999 FEW020 SCT300 
     TEMPO 1512/1518 05007KT 9000 TS -SHRA FEW018CB SCT020 BKN100 
     TEMPO 1518/1524 03005KT FEW015CB FEW020 BKN250
       
RPLL 151200Z 09007KT 9999 FEW025 28/22 Q1013 NOSIG RMK A2991
TAF RPLL 151100Z 1512/1618 11009KT 9999 FEW025 TX33/1606Z TN25/1521Z 
     TEMPO 1512/1518 10005KT FEW023 SCT100 
     TEMPO 1600/1606 09014KT FEW025 SCT300
       
RPVP 151100Z 04004KT 7000 -TSRA FEW017CB SCT018 OVC080 26/26 Q1010 RMK A2983 CB NE W/ OCNL TS
TAF RPVP 151100Z 1512/1612 11007KT 9999 FEW019 BKN080 
     TEMPO 1512/1518 09008KT 8000 -TSRA FEW017CB SCT019 OVC080 
     TEMPO 1518/1524 13005KT 9000 TS -SHRA FEW017CB SCT019 BKN080 OVC240
       
RPLB 151200Z 12005KT 070V200 9999 FEW020 27/21 Q1013 NOSIG RMK A2991
TAF RPLB 151100Z 1512/1612 07004KT 9999 FEW020 SCT300 TX33/1606Z TN25/1522Z 
     TEMPO 1512/1518 06006KT FEW020 SCT080
       
RPMR 150900Z 18006KT 9999 SCT020CB SCT080 BKN250 28/24 Q1010 NOSIG RMK A2983 CB SW NW QDS W/ DSNT PCPN
TAF RPMR 151100Z 1512/1612 04010KT 9999 FEW018 SCT080 BKN250 
     TEMPO 1512/1518 16006KT 8000 -TSRA FEW018CB SCT020 OVC080
       
RPMZ 151200Z 01003KT 9999 FEW016CB FEW017 SCT090 27/25 Q1011 RMK A2985 CB E
TAF RPMZ 151100Z 1512/1612 12006KT 9999 FEW017 BKN300 
     TEMPO 1512/1518 18004KT 9000 -SHRA FEW016CB SCT017 BKN090